createdAt,value
2018-07-13T00:02:01.984Z,58.60
2018-07-13T00:04:30.270Z,58.80
2018-07-13T00:06:58.524Z,58.70
2018-07-13T00:09:26.808Z,58.40
2018-07-13T00:11:55.075Z,58.20
2018-07-13T00:14:24.384Z,58.10
2018-07-13T00:16:53.813Z,58.00
2018-07-13T00:19:22.788Z,58.20
2018-07-13T00:21:51.057Z,58.20
2018-07-13T00:24:19.333Z,58.00
2018-07-13T00:29:15.643Z,57.80
2018-07-13T00:31:44.408Z,57.90
2018-07-13T00:34:12.793Z,58.00
2018-07-13T00:36:41.069Z,58.30
2018-07-13T00:39:12.010Z,58.10
2018-07-13T00:41:40.285Z,58.10
2018-07-13T00:44:08.908Z,58.10
2018-07-13T00:46:37.164Z,58.20
2018-07-13T00:49:05.428Z,58.30
2018-07-13T00:51:33.688Z,58.50
2018-07-13T00:54:01.956Z,58.30
2018-07-13T00:56:30.238Z,58.10
2018-07-13T00:58:58.497Z,57.80
2018-07-13T01:01:26.794Z,57.70
2018-07-13T01:06:23.100Z,57.70
2018-07-13T01:08:51.399Z,57.80
2018-07-13T01:11:19.665Z,57.70
2018-07-13T01:13:48.193Z,57.70
2018-07-13T01:16:16.474Z,57.70
2018-07-13T01:18:44.738Z,57.80
2018-07-13T01:21:13.008Z,57.70
2018-07-13T01:23:41.282Z,58.00
2018-07-13T01:26:09.553Z,58.00
2018-07-13T01:28:37.788Z,57.70
2018-07-13T01:31:06.080Z,57.80
2018-07-13T01:36:02.316Z,58.10
2018-07-13T01:38:30.638Z,58.30
2018-07-13T01:40:58.912Z,58.30
2018-07-13T01:43:27.532Z,58.00
2018-07-13T01:45:55.814Z,57.70
2018-07-13T01:48:24.100Z,57.50
2018-07-13T01:50:52.385Z,57.50
2018-07-13T01:53:20.662Z,57.50
2018-07-13T01:55:48.953Z,57.60
2018-07-13T01:58:17.228Z,57.50
2018-07-13T02:00:45.508Z,57.50
2018-07-13T02:03:13.806Z,57.60
2018-07-13T02:05:42.062Z,57.70
2018-07-13T02:08:10.342Z,57.80
2018-07-13T02:10:38.602Z,58.00
2018-07-13T02:13:06.846Z,57.70
2018-07-13T02:15:35.126Z,57.60
2018-07-13T02:18:03.394Z,57.80
2018-07-13T02:20:31.676Z,57.80
2018-07-13T02:22:59.943Z,58.00
2018-07-13T02:25:28.192Z,58.10
2018-07-13T02:27:56.460Z,58.10
2018-07-13T02:32:52.744Z,57.50
2018-07-13T02:35:21.017Z,57.50
2018-07-13T02:37:49.284Z,57.90
2018-07-13T02:40:17.566Z,57.80
2018-07-13T02:42:45.897Z,57.80
2018-07-13T02:45:14.162Z,57.80
2018-07-13T02:47:42.440Z,57.80
2018-07-13T02:50:10.718Z,57.80
2018-07-13T02:52:38.963Z,57.70
2018-07-13T02:55:07.223Z,57.70
2018-07-13T02:57:35.669Z,57.70
2018-07-13T03:00:04.090Z,57.70
2018-07-13T03:02:32.350Z,57.70
2018-07-13T03:05:00.659Z,57.60
2018-07-13T03:07:28.914Z,57.70
2018-07-13T03:09:57.205Z,57.70
2018-07-13T03:12:25.539Z,57.80
2018-07-13T03:14:53.876Z,57.70
2018-07-13T03:17:22.132Z,57.60
2018-07-13T03:19:50.523Z,57.30
2018-07-13T03:22:18.874Z,57.30
2018-07-13T03:24:47.064Z,57.80
2018-07-13T03:29:43.343Z,57.30
2018-07-13T03:32:11.605Z,57.20
2018-07-13T03:34:39.899Z,57.30
2018-07-13T03:37:08.169Z,57.40
2018-07-13T03:39:36.439Z,57.50
2018-07-13T03:42:04.740Z,57.60
2018-07-13T03:44:32.992Z,57.70
2018-07-13T03:47:01.251Z,58.20
2018-07-13T03:49:29.503Z,57.40
2018-07-13T03:51:57.791Z,57.40
2018-07-13T03:54:26.059Z,57.40
2018-07-13T03:56:54.371Z,57.30
2018-07-13T03:59:22.653Z,57.50
2018-07-13T04:04:19.013Z,57.20
2018-07-13T04:06:47.379Z,57.20
2018-07-13T04:09:15.656Z,57.40
2018-07-13T04:11:43.924Z,57.30
2018-07-13T04:14:12.193Z,57.50
2018-07-13T04:16:40.448Z,57.40
2018-07-13T04:19:08.717Z,57.30
2018-07-13T04:21:36.979Z,57.20
2018-07-13T04:24:05.430Z,57.30
2018-07-13T04:29:01.758Z,57.60
2018-07-13T04:31:30.029Z,57.60
2018-07-13T04:33:58.289Z,57.50
2018-07-13T04:36:26.571Z,57.50
2018-07-13T04:38:54.823Z,57.60
2018-07-13T04:41:23.139Z,57.50
2018-07-13T04:43:51.423Z,57.60
2018-07-13T04:46:19.687Z,57.80
2018-07-13T04:48:47.993Z,57.90
2018-07-13T04:51:16.357Z,57.90
2018-07-13T04:53:44.624Z,57.60
2018-07-13T04:56:12.889Z,57.50
2018-07-13T04:58:41.147Z,57.40
2018-07-13T05:01:09.519Z,57.50
2018-07-13T05:03:37.772Z,57.50
2018-07-13T05:06:06.028Z,57.50
2018-07-13T05:11:02.271Z,57.70
2018-07-13T05:13:30.569Z,57.80
2018-07-13T05:15:58.885Z,58.40
2018-07-13T05:18:27.151Z,58.20
2018-07-13T05:20:55.421Z,57.90
2018-07-13T05:23:23.684Z,58.00
2018-07-13T05:25:51.952Z,58.10
2018-07-13T05:28:20.199Z,58.30
2018-07-13T05:30:48.533Z,58.40
2018-07-13T05:33:16.739Z,58.70
2018-07-13T05:35:45.026Z,58.50
2018-07-13T05:38:13.325Z,58.30
2018-07-13T05:40:41.599Z,58.10
2018-07-13T05:43:09.987Z,58.60
2018-07-13T05:45:38.268Z,58.00
2018-07-13T05:48:06.536Z,57.90
2018-07-13T05:50:34.808Z,58.00
2018-07-13T05:53:03.064Z,58.10
2018-07-13T05:55:31.328Z,58.30
2018-07-13T05:57:59.621Z,58.50
2018-07-13T06:00:27.952Z,58.40
2018-07-13T06:02:56.216Z,58.40
2018-07-13T06:05:24.506Z,58.60
2018-07-13T06:07:52.787Z,58.60
2018-07-13T06:10:21.076Z,58.70
2018-07-13T06:12:50.228Z,59.00
2018-07-13T06:15:18.497Z,58.90
2018-07-13T06:17:46.774Z,59.00
2018-07-13T06:20:15.023Z,59.00
2018-07-13T06:22:43.308Z,59.10
2018-07-13T06:25:11.601Z,59.20
2018-07-13T06:27:40.211Z,59.30
2018-07-13T06:30:08.471Z,59.60
2018-07-13T06:32:36.755Z,59.50
2018-07-13T06:35:05.033Z,59.40
2018-07-13T06:37:33.297Z,59.20
2018-07-13T06:40:01.583Z,59.00
2018-07-13T06:42:29.899Z,58.90
2018-07-13T06:52:22.340Z,59.20
2018-07-13T06:54:50.624Z,59.30
2018-07-13T06:57:30.360Z,59.60
2018-07-13T06:59:58.628Z,59.50
2018-07-13T07:02:38.228Z,59.60
2018-07-13T07:05:17.882Z,59.60
2018-07-13T07:07:46.172Z,59.60
2018-07-13T07:10:14.441Z,59.80
2018-07-13T07:12:51.885Z,60.30
2018-07-13T07:15:20.644Z,60.30
2018-07-13T07:17:48.995Z,60.10
2018-07-13T07:20:17.232Z,60.40
2018-07-13T07:22:45.812Z,60.10
2018-07-13T07:25:14.128Z,60.00
2018-07-13T07:27:42.684Z,60.10
2018-07-13T07:30:10.956Z,60.80
2018-07-13T07:32:39.224Z,59.90
2018-07-13T07:35:07.967Z,59.90
2018-07-13T07:37:36.263Z,60.00
2018-07-13T07:40:04.523Z,59.90
2018-07-13T07:42:33.311Z,60.10
2018-07-13T07:45:01.664Z,60.50
2018-07-13T07:47:29.926Z,60.40
2018-07-13T07:49:58.379Z,60.50
2018-07-13T07:52:26.646Z,60.60
2018-07-13T07:54:55.131Z,60.80
2018-07-13T07:57:23.433Z,60.80
2018-07-13T07:59:51.903Z,60.70
2018-07-13T08:02:20.185Z,60.70
2018-07-13T08:04:48.551Z,60.30
2018-07-13T08:07:17.350Z,60.30
2018-07-13T08:09:45.139Z,60.40
2018-07-13T08:12:13.471Z,60.10
2018-07-13T08:14:41.806Z,60.10
2018-07-13T08:17:10.061Z,60.30
2018-07-13T08:19:38.326Z,60.80
2018-07-13T08:22:14.814Z,60.30
2018-07-13T08:24:44.673Z,60.20
2018-07-13T08:27:16.229Z,60.20
2018-07-13T08:29:44.648Z,60.50
2018-07-13T08:32:12.964Z,60.70
2018-07-13T08:34:41.242Z,60.40
2018-07-13T08:37:09.560Z,60.80
2018-07-13T08:39:37.846Z,60.90
2018-07-13T08:42:06.112Z,60.80
2018-07-13T08:44:34.419Z,60.80
2018-07-13T08:47:02.687Z,61.70
2018-07-13T08:49:30.973Z,61.00
2018-07-13T08:51:59.239Z,60.60
2018-07-13T08:54:27.522Z,60.90
2018-07-13T08:56:56.444Z,60.00
2018-07-13T09:01:52.809Z,59.90
2018-07-13T09:04:21.147Z,59.80
2018-07-13T09:06:49.367Z,59.90
2018-07-13T09:09:18.221Z,60.00
2018-07-13T09:11:47.276Z,60.10
2018-07-13T09:14:15.534Z,60.10
2018-07-13T09:16:43.929Z,60.30
2018-07-13T09:21:40.215Z,60.50
2018-07-13T09:24:08.520Z,60.60
2018-07-13T09:26:37.048Z,60.60
2018-07-13T09:29:05.447Z,60.20
2018-07-13T09:34:01.743Z,60.50
2018-07-13T09:36:29.993Z,61.50
2018-07-13T09:38:58.291Z,61.20
2018-07-13T09:41:26.556Z,60.60
2018-07-13T09:43:54.826Z,60.30
2018-07-13T09:46:23.109Z,60.00
2018-07-13T09:48:51.364Z,59.20
2018-07-13T09:51:19.660Z,59.60
2018-07-13T09:53:47.985Z,58.80
2018-07-13T09:56:16.209Z,58.40
2018-07-13T09:58:44.481Z,58.20
2018-07-13T10:01:18.191Z,58.20
2018-07-13T10:03:46.467Z,57.40
2018-07-13T10:06:14.740Z,57.60
2018-07-13T10:08:43.013Z,57.60
2018-07-13T10:11:11.302Z,57.20
2018-07-13T10:13:39.679Z,57.10
2018-07-13T10:16:07.973Z,58.00
2018-07-13T10:21:05.281Z,58.00
2018-07-13T10:23:33.543Z,57.90
2018-07-13T10:26:06.535Z,58.00
2018-07-13T10:28:36.486Z,58.50
2018-07-13T10:31:04.778Z,58.60
2018-07-13T10:36:02.441Z,58.00
2018-07-13T10:38:30.710Z,58.20
2018-07-13T10:40:59.001Z,58.30
2018-07-13T10:43:27.291Z,58.30
2018-07-13T10:45:55.663Z,58.80
2018-07-13T10:48:23.913Z,58.50
2018-07-13T10:50:52.157Z,58.40
2018-07-13T10:53:20.447Z,57.80
2018-07-13T10:58:16.736Z,57.80
2018-07-13T11:00:44.988Z,58.60
2018-07-13T11:05:41.316Z,57.90
2018-07-13T11:08:09.653Z,57.60
2018-07-13T11:10:37.882Z,57.60
2018-07-13T11:13:06.189Z,58.40
2018-07-13T11:15:34.503Z,57.40
2018-07-13T11:18:02.821Z,57.50
2018-07-13T11:20:31.090Z,57.20
2018-07-13T11:22:59.373Z,57.20
2018-07-13T11:25:27.653Z,57.20
2018-07-13T11:27:55.946Z,57.80
2018-07-13T11:30:24.256Z,57.30
2018-07-13T11:32:52.509Z,58.30
2018-07-13T11:35:20.876Z,57.60
2018-07-13T11:37:49.197Z,56.90
2018-07-13T11:40:17.465Z,57.00
2018-07-13T11:42:45.765Z,56.60
2018-07-13T11:45:14.023Z,57.00
2018-07-13T11:47:42.304Z,57.20
2018-07-13T11:50:10.564Z,57.00
2018-07-13T11:52:38.870Z,56.80
2018-07-13T11:55:07.144Z,57.10
2018-07-13T12:00:03.426Z,57.40
2018-07-13T12:02:31.679Z,57.80
2018-07-13T12:04:59.947Z,57.70
2018-07-13T12:07:28.307Z,57.60
2018-07-13T12:09:56.517Z,57.60
2018-07-13T12:12:24.897Z,58.50
2018-07-13T12:14:53.180Z,57.60
2018-07-13T12:17:21.498Z,57.70
2018-07-13T12:19:49.804Z,58.00
2018-07-13T12:22:18.030Z,58.40
2018-07-13T12:24:46.296Z,58.10
2018-07-13T12:27:14.568Z,58.80
2018-07-13T12:29:42.875Z,58.30
2018-07-13T12:32:11.178Z,58.00
2018-07-13T12:34:39.442Z,57.50
2018-07-13T12:37:07.709Z,57.10
2018-07-13T12:39:36.021Z,55.90
2018-07-13T12:42:04.293Z,56.60
2018-07-13T12:44:32.938Z,57.20
2018-07-13T12:47:01.221Z,57.00
2018-07-13T12:51:57.636Z,57.10
2018-07-13T12:54:26.003Z,57.10
2018-07-13T12:56:54.200Z,57.20
2018-07-13T12:59:22.577Z,57.30
2018-07-13T13:01:50.808Z,57.60
2018-07-13T13:04:19.079Z,57.70
2018-07-13T13:06:47.349Z,57.40
2018-07-13T13:09:15.642Z,57.50
2018-07-13T13:11:43.905Z,57.80
2018-07-13T13:14:12.184Z,58.50
2018-07-13T13:16:40.469Z,58.00
2018-07-13T13:19:08.735Z,57.90
2018-07-13T13:21:37.074Z,57.80
2018-07-13T13:24:05.323Z,57.80
2018-07-13T13:26:33.595Z,58.50
2018-07-13T13:29:01.869Z,57.90
2018-07-13T13:31:30.133Z,58.30
2018-07-13T13:33:58.412Z,57.90
2018-07-13T13:36:26.704Z,57.50
2018-07-13T13:38:55.014Z,57.20
2018-07-13T13:41:23.314Z,57.30
2018-07-13T13:43:51.613Z,57.30
2018-07-13T13:46:19.915Z,57.10
2018-07-13T13:48:48.260Z,56.30
2018-07-13T13:51:16.549Z,55.60
2018-07-13T13:53:44.891Z,57.10
2018-07-13T13:56:13.115Z,57.40
2018-07-13T13:58:41.355Z,57.50
2018-07-13T14:01:09.653Z,57.00
2018-07-13T14:06:06.228Z,56.00
2018-07-13T14:08:34.540Z,58.00
2018-07-13T14:11:02.813Z,58.10
2018-07-13T14:13:31.111Z,58.10
2018-07-13T14:18:27.386Z,57.40
2018-07-13T14:20:55.677Z,57.20
2018-07-13T14:23:23.947Z,57.20
2018-07-13T14:25:52.295Z,57.20
2018-07-13T14:28:20.673Z,56.70
2018-07-13T14:30:49.028Z,55.70
2018-07-13T14:33:17.329Z,57.30
2018-07-13T14:35:45.611Z,56.80
2018-07-13T14:38:13.884Z,56.50
2018-07-13T14:40:42.243Z,56.90
2018-07-13T14:43:10.615Z,57.00
2018-07-13T14:45:38.939Z,56.90
2018-07-13T14:48:07.209Z,56.40
2018-07-13T14:50:35.701Z,56.00
2018-07-13T14:53:03.977Z,56.20
2018-07-13T14:55:32.258Z,56.50
2018-07-13T14:58:00.544Z,56.80
2018-07-13T15:00:28.828Z,56.80
2018-07-13T15:02:57.121Z,56.80
2018-07-13T15:05:25.414Z,57.00
2018-07-13T15:07:54.005Z,56.90
2018-07-13T15:10:22.504Z,56.50
2018-07-13T15:12:50.751Z,55.90
2018-07-13T15:15:19.120Z,56.20
2018-07-13T15:17:47.409Z,56.20
2018-07-13T15:20:15.706Z,56.60
2018-07-13T15:22:44.001Z,56.20
2018-07-13T15:25:12.347Z,56.30
2018-07-13T15:27:40.730Z,56.40
2018-07-13T15:30:09.003Z,57.40
2018-07-13T15:32:37.304Z,57.40
2018-07-13T15:35:05.647Z,57.30
2018-07-13T15:40:02.037Z,57.20
2018-07-13T15:42:30.340Z,57.00
2018-07-13T15:44:58.664Z,57.10
2018-07-13T15:47:26.976Z,57.70
2018-07-13T15:49:55.265Z,57.20
2018-07-13T15:52:23.555Z,56.60
2018-07-13T15:54:51.843Z,56.30
2018-07-13T15:57:20.170Z,56.30
2018-07-13T15:59:48.538Z,56.90
2018-07-13T16:02:16.824Z,57.20
2018-07-13T16:04:45.150Z,57.20
2018-07-13T16:07:13.453Z,57.00
2018-07-13T16:09:41.828Z,56.40
2018-07-13T16:12:10.108Z,57.20
2018-07-13T16:14:38.381Z,56.30
2018-07-13T16:17:06.671Z,55.90
2018-07-13T16:19:34.951Z,55.80
2018-07-13T16:22:03.273Z,55.90
2018-07-13T16:24:31.549Z,56.10
2018-07-13T16:26:59.822Z,56.70
2018-07-13T16:29:28.104Z,56.60
2018-07-13T16:31:56.390Z,56.80
2018-07-13T16:34:24.695Z,56.20
2018-07-13T16:36:52.991Z,56.70
2018-07-13T16:39:21.255Z,56.70
2018-07-13T16:41:49.531Z,57.40
2018-07-13T16:44:17.857Z,57.20
2018-07-13T16:46:46.196Z,57.00
2018-07-13T16:49:14.472Z,56.80
2018-07-13T16:54:10.788Z,56.90
2018-07-13T16:56:39.106Z,57.20
2018-07-13T16:59:07.382Z,57.30
2018-07-13T17:01:35.660Z,57.40
2018-07-13T17:04:03.920Z,57.50
2018-07-13T17:06:32.181Z,58.20
2018-07-13T17:09:00.483Z,57.90
2018-07-13T17:11:28.738Z,57.90
2018-07-13T17:13:57.021Z,57.50
2018-07-13T17:16:25.316Z,57.20
2018-07-13T17:18:53.596Z,57.20
2018-07-13T17:21:21.868Z,58.30
2018-07-13T17:23:50.241Z,57.90
2018-07-13T17:26:18.591Z,57.80
2018-07-13T17:28:46.809Z,57.50
2018-07-13T17:31:15.092Z,57.70
2018-07-13T17:33:43.429Z,57.40
2018-07-13T17:36:11.724Z,57.50
2018-07-13T17:38:40.008Z,58.50
2018-07-13T17:41:08.368Z,58.80
2018-07-13T17:43:36.640Z,57.20
2018-07-13T17:46:04.997Z,57.10
2018-07-13T17:48:33.322Z,57.00
2018-07-13T17:51:01.581Z,56.80
2018-07-13T17:55:57.928Z,57.00
2018-07-13T17:58:26.208Z,57.40
2018-07-13T18:00:54.619Z,57.20
2018-07-13T18:03:22.850Z,57.50
2018-07-13T18:05:51.132Z,57.10
2018-07-13T18:08:19.376Z,57.50
2018-07-13T18:10:47.634Z,57.70
2018-07-13T18:15:43.903Z,57.50
2018-07-13T18:18:12.178Z,57.60
2018-07-13T18:20:40.508Z,57.40
2018-07-13T18:23:08.855Z,57.60
2018-07-13T18:25:37.146Z,57.70
2018-07-13T18:28:05.561Z,57.30
2018-07-13T18:30:33.802Z,56.70
2018-07-13T18:33:02.120Z,57.00
2018-07-13T18:35:30.402Z,56.40
2018-07-13T18:37:58.812Z,56.30
2018-07-13T18:40:27.094Z,56.40
2018-07-13T18:42:55.454Z,56.20
2018-07-13T18:45:23.737Z,56.30
2018-07-13T18:47:52.459Z,56.40
2018-07-13T18:50:20.809Z,57.10
2018-07-13T18:52:49.099Z,56.60
2018-07-13T18:55:17.611Z,56.70
2018-07-13T18:57:45.998Z,57.10
2018-07-13T19:00:14.383Z,57.00
2018-07-13T19:02:43.124Z,56.90
2018-07-13T19:05:11.526Z,57.30
2018-07-13T19:07:39.853Z,57.20
2018-07-13T19:10:08.156Z,57.10
2018-07-13T19:12:36.472Z,56.30
2018-07-13T19:15:05.101Z,56.30
2018-07-13T19:17:33.397Z,56.20
2018-07-13T19:20:01.711Z,56.90
2018-07-13T19:22:30.021Z,57.10
2018-07-13T19:24:58.314Z,56.90
2018-07-13T19:27:26.651Z,56.70
2018-07-13T19:29:54.952Z,55.90
2018-07-13T19:32:23.246Z,55.90
2018-07-13T19:34:51.532Z,55.80
2018-07-13T19:37:19.852Z,56.00
2018-07-13T19:39:48.152Z,56.80
2018-07-13T19:44:44.551Z,57.60
2018-07-13T19:47:12.847Z,57.00
2018-07-13T19:49:41.124Z,57.00
2018-07-13T19:52:09.386Z,57.30
2018-07-13T19:54:37.716Z,57.70
2018-07-13T19:57:06.092Z,57.90
2018-07-13T19:59:34.311Z,58.20
2018-07-13T20:02:02.614Z,58.30
2018-07-13T20:04:30.994Z,57.80
2018-07-13T20:06:59.251Z,58.00
2018-07-13T20:09:27.545Z,57.90
2018-07-13T20:11:55.825Z,58.00
2018-07-13T20:14:24.107Z,58.20
2018-07-13T20:16:52.413Z,57.90
2018-07-13T20:19:20.715Z,57.30
2018-07-13T20:21:48.997Z,56.70
2018-07-13T20:24:17.315Z,56.50
2018-07-13T20:26:45.653Z,56.30
2018-07-13T20:29:14.001Z,56.80
2018-07-13T20:34:10.269Z,55.80
2018-07-13T20:36:38.589Z,55.80
2018-07-13T20:41:35.286Z,56.10
2018-07-13T20:44:03.592Z,56.20
2018-07-13T20:46:31.875Z,56.40
2018-07-13T20:49:00.177Z,56.70
2018-07-13T20:51:28.456Z,57.00
2018-07-13T20:53:56.772Z,57.30
2018-07-13T20:56:25.079Z,57.80
2018-07-13T20:58:53.377Z,57.00
2018-07-13T21:01:21.646Z,56.60
2018-07-13T21:03:49.948Z,56.40
2018-07-13T21:08:46.232Z,56.50
2018-07-13T21:11:14.898Z,56.60
2018-07-13T21:13:43.217Z,56.40
2018-07-13T21:16:11.508Z,56.20
2018-07-13T21:18:39.811Z,56.00
2018-07-13T21:21:08.084Z,56.00
2018-07-13T21:23:36.383Z,56.40
2018-07-13T21:26:04.866Z,56.70
2018-07-13T21:28:33.262Z,56.70
2018-07-13T21:31:01.477Z,56.60
2018-07-13T21:33:29.839Z,56.30
2018-07-13T21:35:58.217Z,56.40
2018-07-13T21:38:26.528Z,56.40
2018-07-13T21:40:54.832Z,56.60
2018-07-13T21:43:23.182Z,56.80
2018-07-13T21:45:51.466Z,56.50
2018-07-13T21:48:19.760Z,56.50
2018-07-13T21:50:48.049Z,56.60
2018-07-13T21:53:16.345Z,56.90
2018-07-13T21:55:44.637Z,57.10
2018-07-13T21:58:12.932Z,56.80
2018-07-13T22:00:41.201Z,56.40
2018-07-13T22:03:09.595Z,56.50
2018-07-13T22:08:06.293Z,57.00
2018-07-13T22:10:34.603Z,57.00
2018-07-13T22:13:02.871Z,57.50
2018-07-13T22:15:31.287Z,57.00
2018-07-13T22:17:59.579Z,57.30
2018-07-13T22:20:27.891Z,56.30
2018-07-13T22:22:56.225Z,56.20
2018-07-13T22:25:24.510Z,56.00
2018-07-13T22:27:52.856Z,56.00
2018-07-13T22:30:21.130Z,55.90
2018-07-13T22:32:49.408Z,56.00
2018-07-13T22:35:17.690Z,56.40
2018-07-13T22:37:46.078Z,56.70
2018-07-13T22:40:14.441Z,56.60
2018-07-13T22:45:10.721Z,56.90
2018-07-13T22:47:39.037Z,57.20
2018-07-13T22:50:07.445Z,57.30
2018-07-13T22:52:35.719Z,57.50
2018-07-13T22:55:04.067Z,57.40
2018-07-13T22:57:32.321Z,57.00
2018-07-13T23:00:00.736Z,56.80
2018-07-13T23:02:28.980Z,56.60
2018-07-13T23:04:57.273Z,56.60
2018-07-13T23:07:25.569Z,56.70
2018-07-13T23:09:53.965Z,56.70
2018-07-13T23:12:22.275Z,56.30
2018-07-13T23:14:50.533Z,56.30
2018-07-13T23:17:18.800Z,56.30
2018-07-13T23:19:47.178Z,56.60
2018-07-13T23:22:16.410Z,56.70
2018-07-13T23:24:44.690Z,56.90
2018-07-13T23:27:12.939Z,57.00
2018-07-13T23:29:41.269Z,56.80
2018-07-13T23:32:09.540Z,57.00
2018-07-13T23:34:37.817Z,56.70
2018-07-13T23:37:06.152Z,56.80
2018-07-13T23:39:34.427Z,57.00
2018-07-13T23:42:02.704Z,57.00
2018-07-13T23:44:30.986Z,56.90
2018-07-13T23:46:59.245Z,56.70
2018-07-13T23:51:55.569Z,56.90
2018-07-13T23:54:23.851Z,56.90
2018-07-13T23:56:52.115Z,56.70
2018-07-13T23:59:20.479Z,56.80
